KPDK

Dekalb-Peachtree Airport

Atlanta, Georgia, USA
KPDK 212334Z 2200/2224 12004KT P6SM SKC FM220100 10003KT P6SM SKC FM221500 10010KT P6SM SCT040 FM221900 11008KT P6SM BKN035
Issued Valid From Valid To
Jan-21 @ 23:34 UTC
(38 minutes ago)
Jan-22 @ 00:00 UTC
(12 minutes ago)
Jan-23 @ 00:00 UTC
(in 24 hours)
Jan-22 @ 00:00 to Jan-22 @ 01:00
KPDK 212334Z 2200/2224 12004KT P6SM SKC
Wind Visibility Clouds
120° at 4 knots Greater than 6 miles
  • Clear skies
From Jan-22 @ 01:00 to Jan-22 @ 15:00
FM220100 10003KT P6SM SKC
Wind Visibility Clouds
100° at 3 knots Greater than 6 miles
  • Clear skies
From Jan-22 @ 15:00 to Jan-22 @ 19:00
FM221500 10010KT P6SM SCT040
Wind Visibility Clouds
100° at 10 knots Greater than 6 miles
  • Scattered at 4,000' AGL
From Jan-22 @ 19:00 to Jan-23 @ 00:00
FM221900 11008KT P6SM BKN035
Wind Visibility Clouds
110° at 8 knots Greater than 6 miles
  • Broken at 3,500' AGL
KPDK 212334Z 2200/2224 12004KT P6SM SKC FM220100 10003KT P6SM SKC FM221500 10010KT P6SM SCT040 FM221900 11008KT P6SM BKN035
Issued Jan-21 @ 23:34 UTC
(38 minutes ago)
Valid From Jan-22 @ 00:00 UTC
(12 minutes ago)
Valid To Jan-23 @ 00:00 UTC
(in 24 hours)
Jan-22 @ 00:00 - Jan-22 @ 01:00
Wind Visibility
120° at 4 knots Greater than 6 miles
Clouds
  • Clear skies
From Jan-22 @ 01:00 - Jan-22 @ 15:00
Wind Visibility
100° at 3 knots Greater than 6 miles
Clouds
  • Clear skies
From Jan-22 @ 15:00 - Jan-22 @ 19:00
Wind Visibility
100° at 10 knots Greater than 6 miles
Clouds
  • Scattered at 4,000' AGL
From Jan-22 @ 19:00 - Jan-23 @ 00:00
Wind Visibility
110° at 8 knots Greater than 6 miles
Clouds
  • Broken at 3,500' AGL